createdAt,value
2022-10-15T00:00:18.821Z,84.05
2022-10-15T00:02:46.160Z,84.08
2022-10-15T00:05:13.464Z,84.61
2022-10-15T00:07:41.603Z,83.87
2022-10-15T00:10:09.122Z,84.35
2022-10-15T00:12:36.484Z,84.83
2022-10-15T00:15:05.226Z,83.73
2022-10-15T00:17:34.055Z,83.76
2022-10-15T00:20:02.234Z,83.88
2022-10-15T00:22:29.577Z,84.28
2022-10-15T00:24:56.985Z,84.91
2022-10-15T00:27:24.492Z,84.56
2022-10-15T00:29:51.795Z,84.09
2022-10-15T00:32:19.458Z,83.67
2022-10-15T00:34:47.281Z,83.87
2022-10-15T00:37:17.046Z,84.66
2022-10-15T00:39:44.902Z,84.12
2022-10-15T00:42:12.287Z,84.66
2022-10-15T00:44:48.925Z,84.43
2022-10-15T00:47:18.393Z,85.13
2022-10-15T00:49:59.983Z,84.78
2022-10-15T00:52:37.071Z,84.70
2022-10-15T00:55:22.972Z,84.70
2022-10-15T00:57:51.411Z,84.69
2022-10-15T01:00:19.686Z,85.25
2022-10-15T01:02:47.130Z,85.15
2022-10-15T01:05:19.382Z,85.08
2022-10-15T01:07:46.827Z,85.50
2022-10-15T01:10:17.548Z,85.20
2022-10-15T01:13:32.487Z,85.78
2022-10-15T01:16:07.923Z,86.10
2022-10-15T01:18:54.289Z,86.15
2022-10-15T01:21:33.692Z,87.07
2022-10-15T01:24:22.660Z,87.57
2022-10-15T01:27:34.717Z,88.66
2022-10-15T01:30:17.347Z,89.24
2022-10-15T01:32:50.391Z,89.89
2022-10-15T01:35:23.968Z,89.75
2022-10-15T01:38:00.955Z,89.60
2022-10-15T01:40:40.212Z,89.40
2022-10-15T01:43:15.351Z,89.95
2022-10-15T01:46:09.065Z,89.93
2022-10-15T01:48:43.150Z,89.87
2022-10-15T01:51:12.388Z,89.80
2022-10-15T01:53:41.381Z,89.58
2022-10-15T01:56:19.661Z,90.12
2022-10-15T01:58:50.333Z,90.15
2022-10-15T02:01:18.303Z,90.39
2022-10-15T02:03:47.880Z,90.35
2022-10-15T02:06:23.586Z,90.11
2022-10-15T02:09:07.857Z,89.47
2022-10-15T02:11:51.806Z,89.71
2022-10-15T02:14:29.645Z,89.98
2022-10-15T02:17:23.223Z,88.92
2022-10-15T02:20:00.731Z,89.25
2022-10-15T02:22:35.521Z,89.71
2022-10-15T02:25:18.604Z,89.92
2022-10-15T02:27:49.644Z,90.12
2022-10-15T02:30:17.937Z,90.06
2022-10-15T02:32:51.268Z,90.05
2022-10-15T02:35:23.721Z,89.83
2022-10-15T02:37:54.118Z,90.36
2022-10-15T02:40:29.909Z,90.94
2022-10-15T02:42:57.583Z,91.74
2022-10-15T02:45:27.843Z,91.31
2022-10-15T02:47:55.556Z,91.29
2022-10-15T02:50:24.831Z,90.96
2022-10-15T02:52:54.877Z,91.20
2022-10-15T02:55:22.308Z,90.96
2022-10-15T02:57:49.646Z,91.12
2022-10-15T03:00:18.536Z,91.20
2022-10-15T03:02:52.158Z,91.36
2022-10-15T03:05:20.504Z,91.11
2022-10-15T03:07:47.900Z,91.39
2022-10-15T03:10:15.804Z,90.63
2022-10-15T03:12:44.230Z,90.89
2022-10-15T03:15:13.033Z,90.29
2022-10-15T03:17:41.258Z,90.54
2022-10-15T03:20:09.253Z,90.23
2022-10-15T03:22:38.956Z,90.37
2022-10-15T03:25:09.227Z,90.80
2022-10-15T03:27:36.727Z,91.38
2022-10-15T03:30:12.564Z,91.11
2022-10-15T03:32:39.908Z,90.91
2022-10-15T03:35:08.420Z,91.72
2022-10-15T03:37:36.388Z,91.28
2022-10-15T03:40:11.967Z,91.47
2022-10-15T03:42:43.699Z,91.90
2022-10-15T03:45:12.065Z,91.77
2022-10-15T03:47:39.501Z,92.08
2022-10-15T03:50:08.392Z,92.60
2022-10-15T03:52:36.988Z,92.68
2022-10-15T03:55:06.251Z,93.11
2022-10-15T03:57:33.993Z,92.62
2022-10-15T04:00:09.893Z,93.37
2022-10-15T04:02:40.567Z,93.94
2022-10-15T04:05:20.002Z,94.84
2022-10-15T04:07:52.829Z,94.87
2022-10-15T04:10:23.836Z,94.99
2022-10-15T04:12:51.215Z,95.03
2022-10-15T04:15:18.951Z,95.55
2022-10-15T04:17:55.659Z,95.83
2022-10-15T04:20:24.325Z,96.19
2022-10-15T04:22:51.684Z,96.48
2022-10-15T04:25:19.159Z,96.55
2022-10-15T04:27:46.990Z,96.57
2022-10-15T04:30:17.909Z,96.70
2022-10-15T04:32:54.575Z,96.21
2022-10-15T04:35:22.045Z,96.43
2022-10-15T04:38:08.741Z,96.35
2022-10-15T04:41:04.903Z,96.03
2022-10-15T04:43:46.294Z,95.46
2022-10-15T04:46:14.186Z,95.23
2022-10-15T04:48:43.247Z,95.54
2022-10-15T04:51:18.272Z,95.89
2022-10-15T04:54:01.784Z,96.07
2022-10-15T04:56:30.516Z,96.23
2022-10-15T04:58:57.927Z,96.11
2022-10-15T05:01:28.744Z,96.54
2022-10-15T05:04:01.630Z,97.10
2022-10-15T05:06:32.726Z,96.52
2022-10-15T05:09:08.952Z,96.36
2022-10-15T05:11:38.256Z,96.09
2022-10-15T05:14:12.153Z,96.39
2022-10-15T05:16:39.886Z,96.59
2022-10-15T05:19:08.226Z,96.13
2022-10-15T05:21:38.416Z,96.83
2022-10-15T05:24:13.323Z,96.71
2022-10-15T05:27:06.800Z,97.09
2022-10-15T05:29:36.199Z,97.73
2022-10-15T05:32:04.529Z,97.67
2022-10-15T05:34:32.082Z,98.43
2022-10-15T05:37:04.023Z,98.85
2022-10-15T05:39:32.481Z,98.56
2022-10-15T05:42:00.589Z,98.14
2022-10-15T05:44:55.027Z,97.62
2022-10-15T05:47:22.694Z,97.52
2022-10-15T05:49:50.131Z,97.37
2022-10-15T05:52:25.510Z,97.36
2022-10-15T05:55:19.191Z,97.40
2022-10-15T05:57:49.050Z,97.26
2022-10-15T06:00:16.547Z,96.50
2022-10-15T06:05:21.662Z,96.52
2022-10-15T06:07:49.041Z,96.39
2022-10-15T06:10:17.463Z,95.98
2022-10-15T06:12:50.019Z,95.84
2022-10-15T06:15:19.224Z,95.73
2022-10-15T06:17:46.623Z,95.02
2022-10-15T06:20:14.043Z,94.79
2022-10-15T06:22:42.199Z,95.17
2022-10-15T06:25:09.955Z,95.45
2022-10-15T06:27:37.273Z,96.29
2022-10-15T06:30:05.338Z,95.83
2022-10-15T06:32:32.776Z,95.13
2022-10-15T06:35:00.171Z,95.12
2022-10-15T06:37:29.593Z,95.42
2022-10-15T06:39:59.203Z,95.27
2022-10-15T06:42:26.504Z,94.67
2022-10-15T06:44:55.972Z,93.73
2022-10-15T06:47:23.648Z,92.74
2022-10-15T06:49:51.156Z,91.96
2022-10-15T06:52:18.536Z,90.54
2022-10-15T06:54:45.909Z,89.38
2022-10-15T06:57:14.402Z,89.77
2022-10-15T06:59:41.833Z,88.32
2022-10-15T07:02:12.112Z,87.93
2022-10-15T07:04:39.839Z,86.30
2022-10-15T07:07:07.198Z,86.42
2022-10-15T07:09:35.454Z,85.80
2022-10-15T07:12:03.656Z,85.14
2022-10-15T07:14:31.677Z,83.92
2022-10-15T07:17:02.919Z,83.91
2022-10-15T07:19:30.246Z,81.57
2022-10-15T07:21:57.629Z,81.85
2022-10-15T07:24:24.944Z,80.38
2022-10-15T07:26:52.406Z,80.96
2022-10-15T07:29:19.760Z,81.29
2022-10-15T07:31:48.408Z,82.04
2022-10-15T07:34:17.163Z,82.67
2022-10-15T07:36:44.547Z,83.50
2022-10-15T07:39:11.958Z,83.39
2022-10-15T07:41:39.293Z,82.71
2022-10-15T07:44:06.602Z,81.56
2022-10-15T07:46:33.961Z,76.77
2022-10-15T07:49:03.673Z,72.96
2022-10-15T07:51:31.057Z,70.17
2022-10-15T07:53:58.476Z,66.83
2022-10-15T07:56:25.807Z,63.44
2022-10-15T07:58:53.093Z,62.27
2022-10-15T08:01:21.565Z,63.60
2022-10-15T08:03:49.021Z,64.54
2022-10-15T08:06:17.032Z,64.66
2022-10-15T08:08:44.995Z,65.32
2022-10-15T08:11:14.948Z,66.12
2022-10-15T08:13:43.528Z,66.55
2022-10-15T08:16:12.945Z,65.19
2022-10-15T08:18:40.599Z,64.64
2022-10-15T08:21:08.653Z,65.97
2022-10-15T08:23:36.358Z,66.98
2022-10-15T08:26:03.898Z,64.45
2022-10-15T08:28:32.904Z,65.54
2022-10-15T08:31:05.248Z,66.33
2022-10-15T08:33:35.219Z,68.25
2022-10-15T08:36:06.465Z,67.51
2022-10-15T08:38:34.912Z,68.58
2022-10-15T08:41:12.258Z,67.85
2022-10-15T08:43:43.711Z,67.80
2022-10-15T08:46:33.519Z,67.69
2022-10-15T08:49:02.578Z,68.49
2022-10-15T08:51:46.386Z,68.06
2022-10-15T08:54:18.210Z,67.96
2022-10-15T08:56:53.583Z,68.93
2022-10-15T08:59:41.852Z,67.08
2022-10-15T09:02:21.102Z,67.15
2022-10-15T09:05:06.904Z,65.18
2022-10-15T09:08:02.748Z,67.33
2022-10-15T09:10:47.812Z,68.89
2022-10-15T09:13:30.645Z,69.50
2022-10-15T09:16:18.467Z,69.45
2022-10-15T09:18:52.477Z,69.84
2022-10-15T09:21:25.446Z,71.75
2022-10-15T09:23:57.031Z,71.89
2022-10-15T09:26:43.976Z,70.39
2022-10-15T09:29:27.505Z,69.82
2022-10-15T09:32:07.758Z,70.01
2022-10-15T09:34:44.754Z,69.93
2022-10-15T09:37:21.314Z,67.98
2022-10-15T09:40:03.929Z,67.88
2022-10-15T09:42:38.186Z,67.42
2022-10-15T09:45:13.736Z,68.97
2022-10-15T09:47:42.525Z,68.84
2022-10-15T09:50:14.391Z,68.72
2022-10-15T09:53:06.497Z,66.36
2022-10-15T09:55:47.891Z,66.93
2022-10-15T09:58:20.830Z,65.92
2022-10-15T10:01:04.719Z,64.42
2022-10-15T10:03:37.926Z,62.25
2022-10-15T10:06:11.222Z,60.92
2022-10-15T10:08:52.260Z,60.17
2022-10-15T10:11:20.945Z,59.45
2022-10-15T10:13:48.378Z,60.32
2022-10-15T10:16:18.315Z,60.09
2022-10-15T10:19:02.818Z,58.53
2022-10-15T10:21:36.001Z,59.35
2022-10-15T10:24:20.807Z,60.17
2022-10-15T10:26:48.471Z,61.83
2022-10-15T10:29:32.812Z,63.09
2022-10-15T10:32:11.136Z,62.29
2022-10-15T10:34:38.619Z,62.90
2022-10-15T10:37:07.692Z,63.70
2022-10-15T10:39:36.589Z,63.50
2022-10-15T10:42:23.983Z,63.73
2022-10-15T10:44:53.904Z,63.68
2022-10-15T10:47:26.169Z,62.94
2022-10-15T10:49:58.960Z,63.64
2022-10-15T10:52:37.782Z,62.51
2022-10-15T10:55:17.891Z,62.49
2022-10-15T10:57:46.495Z,60.96
2022-10-15T11:00:19.466Z,60.02
2022-10-15T11:02:51.287Z,58.55
2022-10-15T11:05:32.077Z,59.00
2022-10-15T11:08:19.913Z,59.44
2022-10-15T11:11:05.663Z,59.79
2022-10-15T11:14:02.864Z,59.97
2022-10-15T11:16:37.208Z,59.81
2022-10-15T11:19:50.347Z,59.33
2022-10-15T11:22:27.185Z,60.63
2022-10-15T11:25:16.267Z,60.54
2022-10-15T11:27:49.472Z,60.37
2022-10-15T11:30:34.753Z,61.51
2022-10-15T11:33:07.544Z,61.14
2022-10-15T11:35:53.664Z,60.74
2022-10-15T11:38:41.641Z,61.79
2022-10-15T11:41:30.581Z,61.77
2022-10-15T11:44:18.675Z,60.83
2022-10-15T11:46:55.172Z,60.47
2022-10-15T11:49:25.297Z,60.62
2022-10-15T11:52:31.586Z,61.51
2022-10-15T11:55:17.436Z,61.45
2022-10-15T11:57:48.546Z,61.28
2022-10-15T12:00:36.459Z,62.69
2022-10-15T12:03:15.292Z,62.18
2022-10-15T12:05:54.660Z,62.26
2022-10-15T12:08:23.850Z,62.70
2022-10-15T12:11:25.161Z,63.31
2022-10-15T12:14:05.818Z,63.27
2022-10-15T12:16:43.870Z,63.41
2022-10-15T12:19:18.728Z,63.51
2022-10-15T12:21:54.789Z,63.25
2022-10-15T12:24:44.636Z,62.96
2022-10-15T12:27:15.961Z,62.56
2022-10-15T12:29:43.302Z,63.32
2022-10-15T12:32:48.951Z,63.19
2022-10-15T12:35:16.387Z,63.34
2022-10-15T12:37:46.933Z,63.91
2022-10-15T12:40:23.134Z,62.78
2022-10-15T12:42:57.565Z,62.14
2022-10-15T12:45:48.659Z,61.79
2022-10-15T12:48:15.966Z,62.39
2022-10-15T12:50:43.790Z,62.44
2022-10-15T12:53:28.630Z,62.09
2022-10-15T12:56:09.748Z,62.22
2022-10-15T12:58:42.622Z,62.73
2022-10-15T13:01:13.143Z,62.31
2022-10-15T13:03:52.090Z,62.84
2022-10-15T13:06:28.120Z,63.07
2022-10-15T13:09:12.936Z,63.07
2022-10-15T13:11:49.402Z,62.30
2022-10-15T13:14:16.715Z,62.54
2022-10-15T13:16:45.861Z,62.15
2022-10-15T13:19:22.134Z,62.68
2022-10-15T13:22:01.786Z,62.51
2022-10-15T13:24:39.358Z,62.48
2022-10-15T13:27:15.362Z,62.64
2022-10-15T13:30:04.628Z,64.11
2022-10-15T13:32:46.023Z,63.61
2022-10-15T13:35:19.203Z,64.51
2022-10-15T13:37:48.064Z,64.09
2022-10-15T13:40:27.320Z,63.63
2022-10-15T13:43:08.644Z,64.26
2022-10-15T13:45:38.759Z,64.09
2022-10-15T13:48:21.984Z,64.30
2022-10-15T13:50:53.437Z,64.38
2022-10-15T13:53:30.790Z,64.53
2022-10-15T13:56:01.124Z,64.48
2022-10-15T13:58:37.936Z,64.67
2022-10-15T14:01:10.697Z,64.84
2022-10-15T14:03:39.356Z,64.02
2022-10-15T14:06:34.098Z,64.36
2022-10-15T14:09:26.779Z,63.45
2022-10-15T14:11:59.107Z,63.72
2022-10-15T14:14:41.298Z,64.03
2022-10-15T14:17:16.955Z,64.21
2022-10-15T14:20:08.311Z,63.63
2022-10-15T14:22:39.740Z,63.72
2022-10-15T14:27:45.960Z,64.97
2022-10-15T14:30:15.327Z,65.03
2022-10-15T14:32:52.575Z,65.14
2022-10-15T14:35:31.969Z,65.82
2022-10-15T14:38:15.259Z,65.41
2022-10-15T14:41:07.645Z,66.01
2022-10-15T14:43:36.663Z,66.44
2022-10-15T14:46:08.423Z,66.21
2022-10-15T14:48:38.723Z,65.81
2022-10-15T14:51:19.389Z,66.29
2022-10-15T14:53:47.327Z,66.62
2022-10-15T14:56:16.416Z,66.79
2022-10-15T14:58:52.060Z,67.36
2022-10-15T15:01:21.951Z,67.38
2022-10-15T15:03:51.767Z,67.47
2022-10-15T15:06:19.662Z,67.04
2022-10-15T15:08:47.298Z,67.09
2022-10-15T15:11:19.333Z,67.97
2022-10-15T15:13:47.769Z,67.43
2022-10-15T15:16:17.187Z,67.48
2022-10-15T15:18:46.391Z,66.98
2022-10-15T15:21:17.431Z,67.69
2022-10-15T15:23:44.953Z,68.11
2022-10-15T15:26:15.391Z,68.59
2022-10-15T15:28:42.818Z,68.82
2022-10-15T15:31:16.328Z,68.80
2022-10-15T15:33:43.840Z,68.95
2022-10-15T15:36:18.917Z,68.89
2022-10-15T15:38:51.098Z,69.80
2022-10-15T15:41:22.152Z,69.42
2022-10-15T15:43:50.597Z,69.33
2022-10-15T15:46:18.317Z,69.01
2022-10-15T15:48:45.651Z,69.29
2022-10-15T15:51:26.161Z,68.95
2022-10-15T15:53:53.706Z,68.69
2022-10-15T15:56:21.521Z,69.03
2022-10-15T15:58:52.776Z,69.61
2022-10-15T16:01:20.392Z,69.64
2022-10-15T16:03:47.953Z,69.24
2022-10-15T16:06:15.435Z,69.62
2022-10-15T16:08:42.819Z,69.96
2022-10-15T16:11:10.190Z,70.12
2022-10-15T16:13:43.067Z,70.16
2022-10-15T16:16:11.095Z,70.44
2022-10-15T16:18:38.491Z,72.36
2022-10-15T16:21:06.009Z,73.58
2022-10-15T16:23:33.367Z,73.81
2022-10-15T16:26:00.833Z,74.07
2022-10-15T16:28:28.249Z,73.75
2022-10-15T16:30:55.617Z,73.43
2022-10-15T16:33:23.016Z,75.01
2022-10-15T16:35:56.024Z,75.61
2022-10-15T16:38:23.368Z,76.12
2022-10-15T16:40:50.675Z,76.55
2022-10-15T16:43:19.091Z,77.11
2022-10-15T16:45:54.733Z,77.61
2022-10-15T16:48:22.102Z,77.93
2022-10-15T16:51:08.821Z,78.22
2022-10-15T16:53:40.053Z,78.20
2022-10-15T16:56:16.296Z,78.44
2022-10-15T16:58:43.771Z,79.07
2022-10-15T17:01:13.475Z,79.18
2022-10-15T17:03:41.525Z,79.70
2022-10-15T17:06:12.493Z,79.93
2022-10-15T17:08:47.168Z,80.18
2022-10-15T17:11:15.919Z,80.00
2022-10-15T17:13:43.289Z,80.13
2022-10-15T17:16:31.706Z,80.19
2022-10-15T17:18:59.575Z,80.20
2022-10-15T17:21:28.716Z,80.76
2022-10-15T17:23:59.520Z,80.89
2022-10-15T17:26:29.497Z,81.24
2022-10-15T17:28:56.882Z,80.79
2022-10-15T17:31:27.720Z,81.04
2022-10-15T17:33:57.794Z,80.47
2022-10-15T17:36:27.681Z,81.32
2022-10-15T17:38:59.319Z,81.59
2022-10-15T17:41:30.089Z,82.09
2022-10-15T17:43:57.882Z,81.95
2022-10-15T17:46:28.411Z,82.38
2022-10-15T17:48:57.074Z,82.31
2022-10-15T17:51:29.316Z,82.77
2022-10-15T17:54:02.552Z,83.52
2022-10-15T17:56:32.869Z,84.25
2022-10-15T17:59:03.512Z,85.21
2022-10-15T18:04:24.213Z,85.38
2022-10-15T18:06:51.548Z,85.87
2022-10-15T18:09:28.266Z,85.18
2022-10-15T18:11:57.294Z,84.72
2022-10-15T18:14:29.302Z,84.85
2022-10-15T18:16:57.174Z,84.39
2022-10-15T18:19:26.732Z,83.93
2022-10-15T18:21:55.499Z,83.71
2022-10-15T18:24:23.840Z,83.13
2022-10-15T18:26:51.574Z,83.40
2022-10-15T18:29:19.527Z,83.03
2022-10-15T18:31:54.794Z,83.39
2022-10-15T18:34:24.931Z,83.89
2022-10-15T18:36:52.225Z,83.66
2022-10-15T18:39:22.917Z,82.33
2022-10-15T18:41:50.306Z,83.91
2022-10-15T18:44:20.811Z,86.52
2022-10-15T18:46:49.834Z,86.21
2022-10-15T18:49:19.168Z,86.89
2022-10-15T18:51:46.730Z,86.46
2022-10-15T18:54:14.195Z,86.13
2022-10-15T18:56:41.646Z,85.08
2022-10-15T18:59:09.118Z,84.23
2022-10-15T19:01:41.980Z,84.29
2022-10-15T19:04:15.430Z,83.69
2022-10-15T19:06:45.590Z,83.30
2022-10-15T19:09:15.882Z,83.48
2022-10-15T19:11:45.151Z,84.17
2022-10-15T19:14:15.926Z,84.27
2022-10-15T19:16:44.698Z,84.29
2022-10-15T19:19:16.137Z,84.29
2022-10-15T19:21:44.215Z,83.43
2022-10-15T19:24:12.400Z,83.56
2022-10-15T19:26:39.763Z,83.59
2022-10-15T19:29:07.185Z,84.05
2022-10-15T19:31:37.495Z,83.84
2022-10-15T19:34:05.473Z,83.24
2022-10-15T19:36:36.905Z,83.16
2022-10-15T19:39:11.226Z,83.05
2022-10-15T19:41:40.922Z,83.05
2022-10-15T19:44:09.617Z,83.28
2022-10-15T19:46:37.833Z,82.88
2022-10-15T19:49:06.964Z,82.71
2022-10-15T19:51:35.189Z,82.83
2022-10-15T19:54:03.068Z,82.77
2022-10-15T19:56:32.988Z,82.34
2022-10-15T19:59:03.182Z,82.92
2022-10-15T20:01:30.768Z,82.52
2022-10-15T20:04:05.753Z,81.79
2022-10-15T20:06:38.269Z,80.21
2022-10-15T20:09:07.248Z,80.34
2022-10-15T20:11:36.674Z,80.09
2022-10-15T20:14:04.959Z,82.74
2022-10-15T20:16:33.415Z,82.66
2022-10-15T20:19:05.576Z,82.78
2022-10-15T20:21:33.000Z,81.73
2022-10-15T20:24:04.262Z,82.86
2022-10-15T20:26:32.682Z,82.71
2022-10-15T20:29:00.342Z,82.49
2022-10-15T20:31:32.271Z,82.37
2022-10-15T20:34:00.817Z,82.85
2022-10-15T20:36:28.621Z,83.31
2022-10-15T20:38:57.534Z,84.04
2022-10-15T20:41:24.987Z,84.43
2022-10-15T20:43:57.527Z,84.26
2022-10-15T20:46:32.809Z,83.22
2022-10-15T20:49:08.475Z,83.46
2022-10-15T20:51:37.782Z,83.58
2022-10-15T20:54:05.790Z,84.79
2022-10-15T20:56:33.422Z,84.58
2022-10-15T20:59:01.063Z,84.22
2022-10-15T21:01:28.559Z,84.46
2022-10-15T21:03:55.896Z,85.09
2022-10-15T21:06:23.239Z,85.39
2022-10-15T21:08:50.611Z,86.51
2022-10-15T21:11:18.085Z,86.41
2022-10-15T21:13:46.214Z,86.77
2022-10-15T21:16:13.740Z,86.77
2022-10-15T21:18:41.126Z,87.19
2022-10-15T21:21:12.407Z,87.27
2022-10-15T21:23:41.145Z,86.69
2022-10-15T21:26:14.276Z,86.36
2022-10-15T21:28:42.140Z,86.33
2022-10-15T21:31:14.871Z,86.11
2022-10-15T21:33:43.346Z,87.00
2022-10-15T21:36:11.800Z,87.16
2022-10-15T21:38:39.505Z,87.86
2022-10-15T21:41:07.513Z,88.29
2022-10-15T21:43:35.173Z,88.49
2022-10-15T21:46:11.196Z,88.36
2022-10-15T21:48:39.025Z,88.43
2022-10-15T21:51:14.556Z,87.84
2022-10-15T21:53:42.993Z,88.05
2022-10-15T21:56:14.911Z,88.09
2022-10-15T21:58:43.091Z,87.54
2022-10-15T22:01:15.664Z,87.33
2022-10-15T22:03:45.683Z,86.90
2022-10-15T22:06:14.282Z,86.95
2022-10-15T22:08:42.169Z,86.39
2022-10-15T22:11:16.490Z,86.96
2022-10-15T22:13:46.220Z,86.77
2022-10-15T22:16:14.651Z,86.34
2022-10-15T22:18:42.268Z,85.63
2022-10-15T22:21:15.770Z,85.54
2022-10-15T22:23:44.998Z,86.17
2022-10-15T22:26:13.627Z,86.01
2022-10-15T22:28:41.496Z,86.07
2022-10-15T22:31:12.785Z,85.63
2022-10-15T22:33:41.028Z,85.12
2022-10-15T22:36:16.212Z,85.02
2022-10-15T22:38:46.062Z,84.85
2022-10-15T22:41:14.472Z,84.93
2022-10-15T22:43:42.227Z,84.67
2022-10-15T22:46:10.263Z,84.69
2022-10-15T22:48:39.615Z,84.41
2022-10-15T22:51:10.239Z,84.26
2022-10-15T22:53:37.949Z,83.74
2022-10-15T22:56:17.495Z,83.97
2022-10-15T22:58:46.059Z,85.02
2022-10-15T23:01:22.089Z,84.56
2022-10-15T23:03:55.638Z,84.34
2022-10-15T23:06:24.076Z,84.75
2022-10-15T23:08:52.042Z,85.43
2022-10-15T23:11:38.472Z,85.91
2022-10-15T23:14:09.749Z,85.94
2022-10-15T23:16:40.186Z,86.41
2022-10-15T23:19:12.908Z,86.55
2022-10-15T23:21:44.845Z,86.86
2022-10-15T23:24:12.843Z,86.55
2022-10-15T23:26:41.095Z,86.40
2022-10-15T23:29:13.625Z,87.39
2022-10-15T23:31:41.249Z,86.84
2022-10-15T23:34:17.227Z,86.88
2022-10-15T23:36:45.739Z,87.25
2022-10-15T23:39:25.698Z,88.18
2022-10-15T23:41:54.547Z,88.94
2022-10-15T23:44:25.591Z,89.45
2022-10-15T23:46:53.357Z,90.01
2022-10-15T23:49:20.663Z,90.42
2022-10-15T23:51:48.407Z,90.38
2022-10-15T23:54:18.234Z,90.74
2022-10-15T23:56:47.090Z,90.61
2022-10-15T23:59:14.809Z,91.36
